Damwald, Netherlands
Current Conditions -  °F | °C
As of 2:25 AM on Sunday 26 Oct 2014 (Local Time) from EHLW Reporting Station
Broken Clouds Broken Clouds  
Wind Chill: 50°   Ceiling: 4300
Heat Index: 50°   Visibility: 6mi
Dew Point: 48°   Wind: 8mph
Humidity: 94%   Direction: 200°SSW
Pressure: 30.12"   Gusts: NA
Location:  53.29°N, 6°E
Report Text: EHLW 260025Z AUTO 20007KT 9999 BKN043 10/09 Q1020 BLU
Loading
Personal Weather Stations






























Interactive Weather Map
Tropical Storm Tracking
New forecast layout! Learn more

10-Day Weather Forecast

Advertisements
Track Severe Weather on mobile